createdAt,value
2022-12-31T00:00:21.051Z,1.17
2022-12-31T00:02:48.279Z,0.93
2022-12-31T00:05:22.122Z,0.80
2022-12-31T00:07:49.307Z,0.98
2022-12-31T00:10:16.464Z,0.77
2022-12-31T00:12:50.046Z,1.00
2022-12-31T00:15:17.279Z,0.90
2022-12-31T00:17:44.391Z,1.05
2022-12-31T00:20:18.009Z,0.80
2022-12-31T00:22:45.173Z,0.70
2022-12-31T00:25:19.384Z,0.47
2022-12-31T00:27:46.568Z,0.75
2022-12-31T00:30:33.243Z,0.77
2022-12-31T00:33:00.352Z,0.75
2022-12-31T00:35:27.560Z,0.50
2022-12-31T00:38:01.011Z,0.70
2022-12-31T00:40:29.342Z,0.70
2022-12-31T00:43:03.042Z,0.70
2022-12-31T00:45:30.146Z,0.90
2022-12-31T00:47:57.371Z,0.68
2022-12-31T00:50:31.026Z,1.10
2022-12-31T00:52:58.111Z,1.10
2022-12-31T00:55:32.034Z,1.42
2022-12-31T00:57:59.098Z,1.38
2022-12-31T01:00:26.213Z,1.35
2022-12-31T01:03:00.117Z,1.40
2022-12-31T01:05:27.330Z,1.83
2022-12-31T01:08:01.005Z,1.90
2022-12-31T01:10:46.761Z,1.92
2022-12-31T01:13:20.053Z,2.28
2022-12-31T01:15:47.229Z,2.17
2022-12-31T01:18:14.491Z,2.78
2022-12-31T01:20:49.025Z,3.13
2022-12-31T01:23:16.116Z,2.42
2022-12-31T01:25:50.125Z,3.33
2022-12-31T01:28:17.298Z,2.70
2022-12-31T01:31:04.123Z,3.55
2022-12-31T01:33:38.153Z,3.35
2022-12-31T01:36:13.068Z,3.10
2022-12-31T01:38:40.684Z,3.75
2022-12-31T01:43:52.019Z,3.75
2022-12-31T01:46:33.049Z,2.90
2022-12-31T01:49:09.063Z,4.47
2022-12-31T01:51:36.278Z,3.75
2022-12-31T01:54:05.257Z,3.53
2022-12-31T01:56:39.033Z,3.67
2022-12-31T01:59:07.373Z,4.28
2022-12-31T02:01:43.142Z,4.25
2022-12-31T02:04:11.812Z,3.85
2022-12-31T02:06:41.026Z,3.83
2022-12-31T02:09:15.048Z,4.60
2022-12-31T02:11:42.152Z,4.93
2022-12-31T02:14:18.087Z,4.55
2022-12-31T02:16:50.792Z,4.60
2022-12-31T02:19:39.165Z,4.65
2022-12-31T02:22:25.229Z,4.32
2022-12-31T02:25:18.075Z,4.07
2022-12-31T02:28:04.138Z,5.43
2022-12-31T02:30:45.071Z,4.80
2022-12-31T02:33:27.080Z,4.18
2022-12-31T02:36:09.169Z,4.80
2022-12-31T02:38:39.869Z,4.50
2022-12-31T02:41:06.939Z,5.35
2022-12-31T02:43:40.028Z,5.63
2022-12-31T02:46:18.171Z,5.15
2022-12-31T02:51:28.212Z,5.70
2022-12-31T02:54:11.046Z,5.47
2022-12-31T02:56:50.314Z,4.53
2022-12-31T03:00:02.046Z,5.57
2022-12-31T03:02:30.793Z,6.05
2022-12-31T03:05:05.037Z,6.57
2022-12-31T03:07:33.316Z,6.80
2022-12-31T03:10:10.099Z,6.70
2022-12-31T03:12:49.892Z,6.65
2022-12-31T03:15:26.047Z,7.20
2022-12-31T03:18:02.049Z,7.15
2022-12-31T03:20:56.070Z,7.38
2022-12-31T03:23:32.059Z,5.82
2022-12-31T03:26:06.108Z,6.82
2022-12-31T03:28:33.183Z,7.22
2022-12-31T03:31:13.162Z,7.40
2022-12-31T03:33:41.371Z,7.40
2022-12-31T03:36:09.755Z,7.20
2022-12-31T03:38:43.041Z,6.03
2022-12-31T03:41:11.121Z,6.68
2022-12-31T03:43:38.269Z,7.00
2022-12-31T03:46:12.117Z,7.95
2022-12-31T03:48:39.912Z,8.57
2022-12-31T03:51:06.997Z,8.23
2022-12-31T03:53:42.056Z,5.40
2022-12-31T03:56:09.173Z,7.03
2022-12-31T03:58:43.101Z,8.18
2022-12-31T04:01:10.306Z,8.98
2022-12-31T04:03:37.473Z,8.48
2022-12-31T04:06:11.085Z,6.95
2022-12-31T04:08:38.159Z,7.97
2022-12-31T04:11:14.727Z,7.07
2022-12-31T04:13:46.101Z,7.20
2022-12-31T04:16:20.131Z,8.40
2022-12-31T04:18:54.213Z,7.20
2022-12-31T04:21:21.299Z,6.70
2022-12-31T04:23:48.489Z,8.07
2022-12-31T04:26:22.115Z,8.27
2022-12-31T04:28:49.286Z,7.90
2022-12-31T04:31:30.182Z,7.93
2022-12-31T04:34:04.011Z,7.47
2022-12-31T04:36:38.096Z,8.25
2022-12-31T04:39:05.317Z,7.93
2022-12-31T04:41:32.479Z,7.78
2022-12-31T04:44:07.062Z,7.15
2022-12-31T04:46:34.725Z,8.73
2022-12-31T04:49:08.132Z,8.27
2022-12-31T04:51:35.726Z,8.75
2022-12-31T04:56:36.059Z,7.45
2022-12-31T04:59:04.381Z,8.73
2022-12-31T05:01:39.317Z,7.05
2022-12-31T05:04:06.499Z,8.15
2022-12-31T05:06:33.723Z,8.32
2022-12-31T05:09:07.078Z,7.65
2022-12-31T05:11:35.649Z,7.38
2022-12-31T05:14:09.146Z,7.70
2022-12-31T05:16:36.334Z,7.63
2022-12-31T05:19:06.255Z,7.55
2022-12-31T05:21:40.071Z,5.72
2022-12-31T05:24:07.337Z,6.60
2022-12-31T05:26:41.090Z,6.57
2022-12-31T05:29:08.538Z,8.25
2022-12-31T05:31:49.120Z,7.72
2022-12-31T05:34:16.194Z,7.15
2022-12-31T05:36:43.305Z,8.00
2022-12-31T05:39:17.104Z,7.10
2022-12-31T05:41:44.197Z,7.82
2022-12-31T05:44:18.123Z,7.85
2022-12-31T05:46:45.385Z,7.60
2022-12-31T05:49:12.455Z,7.82
2022-12-31T05:51:46.096Z,7.18
2022-12-31T05:54:13.212Z,7.20
2022-12-31T05:56:47.129Z,7.30
2022-12-31T05:59:14.404Z,7.15
2022-12-31T06:01:41.531Z,6.85
2022-12-31T06:04:15.114Z,8.52
2022-12-31T06:06:42.312Z,7.03
2022-12-31T06:09:16.140Z,7.65
2022-12-31T06:11:43.356Z,7.60
2022-12-31T06:14:10.888Z,8.38
2022-12-31T06:19:11.223Z,6.95
2022-12-31T06:21:45.123Z,8.15
2022-12-31T06:24:12.295Z,8.50
2022-12-31T06:26:39.387Z,7.53
2022-12-31T06:29:13.100Z,6.70
2022-12-31T06:32:00.160Z,6.90
2022-12-31T06:34:34.242Z,8.38
2022-12-31T06:37:01.341Z,7.78
2022-12-31T06:39:28.692Z,8.23
2022-12-31T06:42:02.143Z,6.03
2022-12-31T06:44:29.296Z,6.75
2022-12-31T06:47:03.129Z,7.20
2022-12-31T06:49:30.234Z,7.80
2022-12-31T06:51:57.403Z,8.35
2022-12-31T06:54:31.125Z,8.00
2022-12-31T06:56:58.402Z,7.28
2022-12-31T06:59:33.144Z,6.50
2022-12-31T07:02:06.046Z,6.78
2022-12-31T07:04:53.171Z,6.40
2022-12-31T07:07:20.219Z,6.68
2022-12-31T07:09:51.213Z,6.43
2022-12-31T07:12:30.122Z,6.80
2022-12-31T07:15:02.841Z,6.68
2022-12-31T07:17:36.116Z,6.85
2022-12-31T07:20:09.888Z,6.60
2022-12-31T07:22:43.129Z,7.47
2022-12-31T07:25:13.616Z,7.72
2022-12-31T07:27:54.120Z,7.07
2022-12-31T07:30:50.125Z,8.05
2022-12-31T07:33:47.119Z,7.32
2022-12-31T07:36:30.585Z,7.22
2022-12-31T07:39:09.129Z,6.90
2022-12-31T07:41:48.239Z,7.88
2022-12-31T07:44:27.149Z,7.80
2022-12-31T07:46:56.122Z,6.80
2022-12-31T07:49:30.118Z,7.20
2022-12-31T07:51:57.424Z,7.07
2022-12-31T07:54:31.161Z,6.97
2022-12-31T07:56:58.406Z,6.43
2022-12-31T07:59:40.138Z,7.38
2022-12-31T08:02:22.771Z,7.68
2022-12-31T08:05:05.152Z,7.18
2022-12-31T08:07:45.661Z,6.97
2022-12-31T08:10:27.214Z,7.05
2022-12-31T08:12:59.205Z,7.20
2022-12-31T08:15:30.284Z,8.88
2022-12-31T08:18:04.134Z,7.88
2022-12-31T08:20:32.916Z,7.63
2022-12-31T08:23:15.164Z,7.28
2022-12-31T08:25:55.475Z,7.40
2022-12-31T08:28:32.137Z,8.73
2022-12-31T08:31:39.168Z,7.68
2022-12-31T08:34:22.143Z,6.60
2022-12-31T08:36:54.364Z,7.30
2022-12-31T08:39:47.308Z,6.93
2022-12-31T08:42:31.951Z,8.27
2022-12-31T08:45:24.332Z,5.90
2022-12-31T08:47:56.423Z,7.20
2022-12-31T08:50:33.118Z,7.32
2022-12-31T08:53:07.166Z,8.00
2022-12-31T08:55:34.367Z,6.65
2022-12-31T08:58:27.153Z,7.35
2022-12-31T09:00:57.538Z,8.07
2022-12-31T09:03:47.295Z,8.07
2022-12-31T09:06:17.482Z,7.93
2022-12-31T09:08:44.544Z,6.63
2022-12-31T09:11:23.488Z,7.50
2022-12-31T09:13:56.672Z,8.25
2022-12-31T09:16:33.191Z,7.40
2022-12-31T09:19:00.290Z,8.18
2022-12-31T09:21:34.134Z,6.97
2022-12-31T09:24:07.513Z,7.57
2022-12-31T09:26:49.184Z,7.30
2022-12-31T09:29:31.335Z,8.32
2022-12-31T09:32:44.158Z,7.15
2022-12-31T09:35:39.429Z,7.90
2022-12-31T09:38:19.235Z,7.93
2022-12-31T09:40:49.120Z,7.72
2022-12-31T09:43:41.182Z,6.65
2022-12-31T09:46:29.859Z,8.27
2022-12-31T09:51:36.436Z,6.68
2022-12-31T09:54:28.167Z,7.20
2022-12-31T09:57:08.425Z,7.60
2022-12-31T09:59:51.157Z,7.47
2022-12-31T10:02:42.323Z,8.45
2022-12-31T10:05:29.152Z,7.50
2022-12-31T10:07:59.087Z,8.18
2022-12-31T10:10:47.207Z,7.28
2022-12-31T10:13:14.252Z,6.90
2022-12-31T10:15:41.668Z,7.60
2022-12-31T10:18:19.158Z,6.75
2022-12-31T10:21:08.180Z,6.35
2022-12-31T10:23:53.902Z,6.82
2022-12-31T10:26:27.346Z,7.50
2022-12-31T10:28:57.274Z,7.05
2022-12-31T10:31:55.349Z,6.63
2022-12-31T10:34:39.077Z,6.85
2022-12-31T10:37:18.203Z,6.97
2022-12-31T10:40:11.173Z,6.57
2022-12-31T10:42:41.113Z,6.18
2022-12-31T10:45:30.182Z,7.28
2022-12-31T10:48:14.475Z,7.28
2022-12-31T10:50:48.172Z,6.95
2022-12-31T10:53:38.563Z,7.53
2022-12-31T10:56:29.249Z,7.68
2022-12-31T10:59:11.504Z,7.88
2022-12-31T11:02:06.401Z,8.13
2022-12-31T11:04:57.992Z,7.90
2022-12-31T11:07:50.179Z,7.75
2022-12-31T11:10:26.881Z,8.18
2022-12-31T11:13:19.204Z,6.13
2022-12-31T11:15:55.586Z,7.53
2022-12-31T11:18:41.195Z,8.68
2022-12-31T11:21:27.969Z,6.10
2022-12-31T11:24:10.171Z,7.82
2022-12-31T11:26:37.228Z,7.25
2022-12-31T11:29:16.261Z,7.45
2022-12-31T11:31:58.107Z,7.50
2022-12-31T11:34:43.247Z,8.38
2022-12-31T11:37:18.258Z,7.63
2022-12-31T11:39:52.224Z,5.68
2022-12-31T11:42:27.757Z,7.80
2022-12-31T11:45:06.329Z,7.43
2022-12-31T11:47:33.413Z,7.20
2022-12-31T11:50:13.188Z,7.38
2022-12-31T11:52:53.185Z,8.63
2022-12-31T11:55:26.059Z,7.47
2022-12-31T11:58:00.187Z,7.80
2022-12-31T12:00:28.243Z,8.88
2022-12-31T12:03:06.217Z,6.18
2022-12-31T12:05:34.572Z,7.22
2022-12-31T12:08:08.267Z,7.75
2022-12-31T12:10:36.841Z,8.30
2022-12-31T12:13:31.208Z,16.35
2022-12-31T12:15:59.304Z,7.40
2022-12-31T12:18:29.330Z,7.32
2022-12-31T12:21:11.220Z,7.50
2022-12-31T12:23:39.088Z,7.53
2022-12-31T12:26:13.218Z,7.10
2022-12-31T12:28:44.809Z,7.38
2022-12-31T12:31:34.382Z,7.90
2022-12-31T12:34:01.588Z,7.13
2022-12-31T12:36:28.661Z,6.70
2022-12-31T12:39:09.189Z,8.15
2022-12-31T12:41:36.279Z,8.90
2022-12-31T12:44:14.249Z,7.93
2022-12-31T12:46:48.311Z,7.70
2022-12-31T12:49:33.278Z,8.55
2022-12-31T12:52:00.392Z,7.80
2022-12-31T12:54:43.236Z,8.60
2022-12-31T12:57:29.453Z,7.32
2022-12-31T13:00:14.202Z,7.35
2022-12-31T13:03:16.845Z,7.10
2022-12-31T13:06:00.247Z,8.48
2022-12-31T13:08:27.313Z,8.40
2022-12-31T13:11:22.188Z,8.10
2022-12-31T13:13:55.354Z,7.97
2022-12-31T13:16:32.269Z,7.60
2022-12-31T13:19:10.602Z,8.18
2022-12-31T13:21:48.316Z,7.50
2022-12-31T13:24:26.076Z,6.22
2022-12-31T13:27:03.208Z,7.70
2022-12-31T13:29:38.253Z,7.45
2022-12-31T13:32:31.211Z,6.90
2022-12-31T13:35:09.291Z,7.20
2022-12-31T13:37:41.104Z,7.22
2022-12-31T13:40:25.229Z,6.70
2022-12-31T13:43:01.255Z,7.38
2022-12-31T13:45:39.236Z,6.15
2022-12-31T13:48:08.976Z,8.43
2022-12-31T13:51:07.297Z,7.95
2022-12-31T13:53:37.451Z,6.95
2022-12-31T13:56:15.222Z,6.60
2022-12-31T13:58:45.829Z,7.40
2022-12-31T14:01:19.310Z,6.53
2022-12-31T14:04:00.511Z,6.53
2022-12-31T14:06:38.235Z,6.25
2022-12-31T14:09:08.100Z,7.00
2022-12-31T14:12:14.220Z,6.78
2022-12-31T14:14:47.159Z,5.60
2022-12-31T14:17:34.231Z,6.65
2022-12-31T14:20:07.026Z,6.80
2022-12-31T14:22:59.211Z,6.18
2022-12-31T14:25:29.878Z,6.20
2022-12-31T14:28:04.493Z,5.35
2022-12-31T14:30:37.482Z,6.57
2022-12-31T14:33:31.283Z,6.30
2022-12-31T14:36:14.053Z,7.43
2022-12-31T14:39:14.267Z,6.53
2022-12-31T14:41:56.679Z,7.22
2022-12-31T14:44:39.285Z,7.47
2022-12-31T14:47:24.832Z,6.50
2022-12-31T14:50:11.295Z,5.78
2022-12-31T14:52:55.408Z,5.70
2022-12-31T14:55:35.257Z,6.35
2022-12-31T15:01:05.584Z,6.03
2022-12-31T15:03:34.150Z,6.80
2022-12-31T15:06:21.370Z,6.88
2022-12-31T15:09:02.460Z,7.82
2022-12-31T15:11:55.518Z,7.10
2022-12-31T15:14:37.862Z,8.65
2022-12-31T15:17:19.331Z,7.10
2022-12-31T15:19:55.572Z,7.63
2022-12-31T15:22:32.318Z,8.13
2022-12-31T15:25:00.987Z,6.97
2022-12-31T15:27:31.674Z,7.63
2022-12-31T15:30:05.373Z,7.30
2022-12-31T15:32:42.974Z,7.78
2022-12-31T15:35:29.391Z,7.22
2022-12-31T15:38:01.330Z,7.00
2022-12-31T15:40:38.285Z,6.05
2022-12-31T15:43:10.975Z,6.13
2022-12-31T15:45:46.442Z,6.32
2022-12-31T15:48:22.175Z,5.97
2022-12-31T15:50:58.335Z,6.13
2022-12-31T15:53:34.044Z,6.95
2022-12-31T15:56:08.265Z,5.90
2022-12-31T15:58:36.643Z,6.68
2022-12-31T16:01:30.375Z,7.47
2022-12-31T16:04:08.843Z,5.63
2022-12-31T16:06:50.623Z,5.68
2022-12-31T16:09:28.678Z,5.20
2022-12-31T16:12:03.295Z,5.32
2022-12-31T16:14:33.319Z,5.53
2022-12-31T16:17:01.023Z,4.85
2022-12-31T16:19:40.428Z,5.13
2022-12-31T16:22:14.970Z,5.13
2022-12-31T16:25:28.494Z,5.85
2022-12-31T16:27:35.914Z,6.05
2022-12-31T16:30:13.255Z,5.53
2022-12-31T16:32:47.316Z,5.28
2022-12-31T16:35:33.362Z,6.60
2022-12-31T16:38:01.268Z,7.32
2022-12-31T16:40:28.489Z,6.32
2022-12-31T16:43:02.278Z,5.55
2022-12-31T16:45:38.554Z,5.05
2022-12-31T16:48:19.454Z,5.05
2022-12-31T16:50:48.009Z,6.25
2022-12-31T16:53:17.559Z,4.85
2022-12-31T16:55:52.272Z,6.32
2022-12-31T16:58:28.860Z,4.68
2022-12-31T17:01:03.339Z,5.60
2022-12-31T17:03:30.858Z,5.82
2022-12-31T17:08:45.325Z,4.82
2022-12-31T17:11:38.282Z,4.82
2022-12-31T17:14:08.402Z,5.03
2022-12-31T17:16:43.278Z,6.65
2022-12-31T17:19:26.632Z,5.88
2022-12-31T17:22:00.323Z,5.30
2022-12-31T17:24:27.618Z,5.57
2022-12-31T17:26:54.768Z,6.03
2022-12-31T17:29:30.281Z,5.63
2022-12-31T17:32:08.386Z,4.65
2022-12-31T17:37:19.110Z,5.43
2022-12-31T17:40:24.517Z,4.30
2022-12-31T17:42:47.470Z,6.85
2022-12-31T17:45:28.328Z,5.85
2022-12-31T17:47:59.781Z,5.00
2022-12-31T17:50:27.531Z,5.35
2022-12-31T17:53:30.287Z,4.85
2022-12-31T17:56:00.479Z,5.43
2022-12-31T17:58:44.434Z,5.15
2022-12-31T18:01:14.538Z,4.90
2022-12-31T18:03:41.695Z,5.07
2022-12-31T18:06:18.331Z,5.05
2022-12-31T18:08:45.464Z,5.15
2022-12-31T18:11:28.463Z,6.00
2022-12-31T18:14:02.356Z,5.30
2022-12-31T18:16:37.394Z,5.72
2022-12-31T18:19:45.899Z,5.50
2022-12-31T18:22:12.287Z,4.90
2022-12-31T18:24:46.305Z,5.28
2022-12-31T18:27:20.117Z,5.72
2022-12-31T18:29:57.798Z,5.07
2022-12-31T18:32:50.316Z,5.70
2022-12-31T18:36:07.767Z,6.30
2022-12-31T18:38:15.534Z,4.65
2022-12-31T18:40:53.361Z,4.53
2022-12-31T18:43:20.914Z,5.25
2022-12-31T18:48:22.283Z,5.13
2022-12-31T18:50:49.479Z,5.40
2022-12-31T18:53:28.356Z,5.60
2022-12-31T18:55:56.826Z,5.70
2022-12-31T18:58:24.474Z,4.88
2022-12-31T19:00:58.483Z,4.20
2022-12-31T19:03:28.069Z,5.97
2022-12-31T19:06:02.324Z,5.20
2022-12-31T19:08:29.415Z,5.50
2022-12-31T19:11:03.479Z,5.45
2022-12-31T19:13:30.579Z,5.55
2022-12-31T19:15:58.699Z,4.95
2022-12-31T19:18:32.340Z,5.97
2022-12-31T19:20:59.408Z,5.65
2022-12-31T19:23:33.419Z,4.63
2022-12-31T19:26:00.751Z,5.28
2022-12-31T19:28:28.470Z,4.97
